sensor_id;sensor_type;location;lat;lon;timestamp;temperature;humidity
29577;DHT22;16509;53.862;10.672;2023-12-20T00:00:49;5.10;99.90
29577;DHT22;16509;53.862;10.672;2023-12-20T00:03:14;5.10;99.90
29577;DHT22;16509;53.862;10.672;2023-12-20T00:05:40;5.10;99.90
29577;DHT22;16509;53.862;10.672;2023-12-20T00:08:06;5.10;99.90
29577;DHT22;16509;53.862;10.672;2023-12-20T00:10:32;5.10;99.90
29577;DHT22;16509;53.862;10.672;2023-12-20T00:12:57;5.10;99.90
29577;DHT22;16509;53.862;10.672;2023-12-20T00:15:23;5.10;99.90
29577;DHT22;16509;53.862;10.672;2023-12-20T00:17:48;5.10;99.90
29577;DHT22;16509;53.862;10.672;2023-12-20T00:20:14;5.10;99.90
29577;DHT22;16509;53.862;10.672;2023-12-20T00:22:39;5.10;99.90
29577;DHT22;16509;53.862;10.672;2023-12-20T00:25:05;5.10;99.90
29577;DHT22;16509;53.862;10.672;2023-12-20T00:27:30;5.00;99.90
29577;DHT22;16509;53.862;10.672;2023-12-20T00:29:56;5.00;99.90
29577;DHT22;16509;53.862;10.672;2023-12-20T00:32:21;5.00;99.90
29577;DHT22;16509;53.862;10.672;2023-12-20T00:34:47;5.10;99.90
29577;DHT22;16509;53.862;10.672;2023-12-20T00:37:13;5.00;99.90
29577;DHT22;16509;53.862;10.672;2023-12-20T00:39:38;5.10;99.90
29577;DHT22;16509;53.862;10.672;2023-12-20T00:42:04;5.10;99.90
29577;DHT22;16509;53.862;10.672;2023-12-20T00:44:30;5.10;99.90
29577;DHT22;16509;53.862;10.672;2023-12-20T00:46:55;5.10;99.90
29577;DHT22;16509;53.862;10.672;2023-12-20T00:49:20;5.10;99.90
29577;DHT22;16509;53.862;10.672;2023-12-20T00:51:46;5.20;99.90
29577;DHT22;16509;53.862;10.672;2023-12-20T00:54:13;5.30;99.90
29577;DHT22;16509;53.862;10.672;2023-12-20T00:56:39;5.30;99.90
29577;DHT22;16509;53.862;10.672;2023-12-20T00:59:04;5.20;99.90
29577;DHT22;16509;53.862;10.672;2023-12-20T01:01:30;5.20;99.90
29577;DHT22;16509;53.862;10.672;2023-12-20T01:03:55;5.20;99.90
29577;DHT22;16509;53.862;10.672;2023-12-20T01:06:21;5.20;99.90
29577;DHT22;16509;53.862;10.672;2023-12-20T01:08:46;5.20;99.90
29577;DHT22;16509;53.862;10.672;2023-12-20T01:11:12;5.30;99.90
29577;DHT22;16509;53.862;10.672;2023-12-20T01:13:37;5.30;99.90
29577;DHT22;16509;53.862;10.672;2023-12-20T01:16:03;5.30;99.90
29577;DHT22;16509;53.862;10.672;2023-12-20T01:18:29;5.40;99.90
29577;DHT22;16509;53.862;10.672;2023-12-20T01:20:55;5.40;99.90
29577;DHT22;16509;53.862;10.672;2023-12-20T01:23:20;5.40;99.90
29577;DHT22;16509;53.862;10.672;2023-12-20T01:25:46;5.40;99.90
29577;DHT22;16509;53.862;10.672;2023-12-20T01:28:11;5.40;99.90
29577;DHT22;16509;53.862;10.672;2023-12-20T01:30:38;5.50;99.90
29577;DHT22;16509;53.862;10.672;2023-12-20T01:33:03;5.40;99.90
29577;DHT22;16509;53.862;10.672;2023-12-20T01:35:29;5.30;99.90
29577;DHT22;16509;53.862;10.672;2023-12-20T01:37:54;5.40;99.90
29577;DHT22;16509;53.862;10.672;2023-12-20T01:40:23;5.30;99.90
29577;DHT22;16509;53.862;10.672;2023-12-20T01:42:58;5.30;99.90
29577;DHT22;16509;53.862;10.672;2023-12-20T01:45:24;5.20;99.90
29577;DHT22;16509;53.862;10.672;2023-12-20T01:47:50;5.20;99.90
29577;DHT22;16509;53.862;10.672;2023-12-20T01:50:16;5.20;99.90
29577;DHT22;16509;53.862;10.672;2023-12-20T01:52:43;5.20;99.90
29577;DHT22;16509;53.862;10.672;2023-12-20T01:55:09;5.20;99.90
29577;DHT22;16509;53.862;10.672;2023-12-20T01:57:40;5.20;99.90
29577;DHT22;16509;53.862;10.672;2023-12-20T02:00:06;5.20;99.90
29577;DHT22;16509;53.862;10.672;2023-12-20T02:02:35;5.30;99.90
29577;DHT22;16509;53.862;10.672;2023-12-20T02:05:02;5.30;99.90
29577;DHT22;16509;53.862;10.672;2023-12-20T02:07:29;5.30;99.90
29577;DHT22;16509;53.862;10.672;2023-12-20T02:09:56;5.30;99.90
29577;DHT22;16509;53.862;10.672;2023-12-20T02:12:22;5.30;99.90
29577;DHT22;16509;53.862;10.672;2023-12-20T02:14:48;5.30;99.90
29577;DHT22;16509;53.862;10.672;2023-12-20T02:17:14;5.30;99.90
29577;DHT22;16509;53.862;10.672;2023-12-20T02:19:39;5.30;99.90
29577;DHT22;16509;53.862;10.672;2023-12-20T02:22:14;5.50;99.90
29577;DHT22;16509;53.862;10.672;2023-12-20T02:24:39;5.40;99.90
29577;DHT22;16509;53.862;10.672;2023-12-20T02:27:06;5.40;99.90
29577;DHT22;16509;53.862;10.672;2023-12-20T02:29:33;5.30;99.90
29577;DHT22;16509;53.862;10.672;2023-12-20T02:31:59;5.30;99.90
29577;DHT22;16509;53.862;10.672;2023-12-20T02:34:24;5.30;99.90
29577;DHT22;16509;53.862;10.672;2023-12-20T02:36:50;5.40;99.90
29577;DHT22;16509;53.862;10.672;2023-12-20T02:39:16;5.30;99.90
29577;DHT22;16509;53.862;10.672;2023-12-20T02:41:41;5.40;99.90
29577;DHT22;16509;53.862;10.672;2023-12-20T02:44:07;5.40;99.90
29577;DHT22;16509;53.862;10.672;2023-12-20T02:46:32;5.40;99.90
29577;DHT22;16509;53.862;10.672;2023-12-20T02:48:58;5.50;99.90
29577;DHT22;16509;53.862;10.672;2023-12-20T02:51:23;5.50;99.90
29577;DHT22;16509;53.862;10.672;2023-12-20T02:53:49;5.50;99.90
29577;DHT22;16509;53.862;10.672;2023-12-20T02:56:14;5.60;99.90
29577;DHT22;16509;53.862;10.672;2023-12-20T02:58:40;5.60;99.90
29577;DHT22;16509;53.862;10.672;2023-12-20T03:01:05;5.50;99.90
29577;DHT22;16509;53.862;10.672;2023-12-20T03:03:31;5.60;99.90
29577;DHT22;16509;53.862;10.672;2023-12-20T03:05:57;5.60;99.90
29577;DHT22;16509;53.862;10.672;2023-12-20T03:08:23;5.70;99.90
29577;DHT22;16509;53.862;10.672;2023-12-20T03:10:48;5.70;99.90
29577;DHT22;16509;53.862;10.672;2023-12-20T03:13:14;5.70;99.90
29577;DHT22;16509;53.862;10.672;2023-12-20T03:15:40;5.70;99.90
29577;DHT22;16509;53.862;10.672;2023-12-20T03:18:05;5.70;99.90
29577;DHT22;16509;53.862;10.672;2023-12-20T03:20:31;5.80;99.90
29577;DHT22;16509;53.862;10.672;2023-12-20T03:23:02;5.70;99.90
29577;DHT22;16509;53.862;10.672;2023-12-20T03:25:28;5.70;99.90
29577;DHT22;16509;53.862;10.672;2023-12-20T03:27:53;5.70;99.90
29577;DHT22;16509;53.862;10.672;2023-12-20T03:30:19;5.80;99.90
29577;DHT22;16509;53.862;10.672;2023-12-20T03:32:45;5.80;99.90
29577;DHT22;16509;53.862;10.672;2023-12-20T03:35:11;5.70;99.90
29577;DHT22;16509;53.862;10.672;2023-12-20T03:37:36;5.80;99.90
29577;DHT22;16509;53.862;10.672;2023-12-20T03:40:02;5.70;99.90
29577;DHT22;16509;53.862;10.672;2023-12-20T03:42:28;5.70;99.90
29577;DHT22;16509;53.862;10.672;2023-12-20T03:44:54;5.60;99.90
29577;DHT22;16509;53.862;10.672;2023-12-20T03:47:19;5.70;99.90
29577;DHT22;16509;53.862;10.672;2023-12-20T03:49:45;5.70;99.90
29577;DHT22;16509;53.862;10.672;2023-12-20T03:52:10;5.70;99.90
29577;DHT22;16509;53.862;10.672;2023-12-20T03:54:36;5.70;99.90
29577;DHT22;16509;53.862;10.672;2023-12-20T03:57:01;5.80;99.90
29577;DHT22;16509;53.862;10.672;2023-12-20T03:59:27;5.80;99.90
29577;DHT22;16509;53.862;10.672;2023-12-20T04:01:52;5.90;99.90
29577;DHT22;16509;53.862;10.672;2023-12-20T04:04:18;5.70;99.90
29577;DHT22;16509;53.862;10.672;2023-12-20T04:06:44;5.80;99.90
29577;DHT22;16509;53.862;10.672;2023-12-20T04:09:09;5.80;99.90
29577;DHT22;16509;53.862;10.672;2023-12-20T04:11:36;5.80;99.90
29577;DHT22;16509;53.862;10.672;2023-12-20T04:14:01;5.80;99.90
29577;DHT22;16509;53.862;10.672;2023-12-20T04:16:27;5.80;99.90
29577;DHT22;16509;53.862;10.672;2023-12-20T04:18:52;5.80;99.90
29577;DHT22;16509;53.862;10.672;2023-12-20T04:21:18;5.80;99.90
29577;DHT22;16509;53.862;10.672;2023-12-20T04:23:43;5.90;99.90
29577;DHT22;16509;53.862;10.672;2023-12-20T04:26:10;5.90;99.90
29577;DHT22;16509;53.862;10.672;2023-12-20T04:28:35;5.80;99.90
29577;DHT22;16509;53.862;10.672;2023-12-20T04:31:01;5.80;99.90
29577;DHT22;16509;53.862;10.672;2023-12-20T04:33:26;5.80;99.90
29577;DHT22;16509;53.862;10.672;2023-12-20T04:35:52;5.80;99.90
29577;DHT22;16509;53.862;10.672;2023-12-20T04:38:18;5.70;99.90
29577;DHT22;16509;53.862;10.672;2023-12-20T04:40:43;5.80;99.90
29577;DHT22;16509;53.862;10.672;2023-12-20T04:43:09;5.80;99.90
29577;DHT22;16509;53.862;10.672;2023-12-20T04:45:34;5.80;99.90
29577;DHT22;16509;53.862;10.672;2023-12-20T04:48:01;5.80;99.90
29577;DHT22;16509;53.862;10.672;2023-12-20T04:50:27;5.80;99.90
29577;DHT22;16509;53.862;10.672;2023-12-20T04:52:52;5.80;99.90
29577;DHT22;16509;53.862;10.672;2023-12-20T04:55:17;5.80;99.90
29577;DHT22;16509;53.862;10.672;2023-12-20T04:57:43;5.80;99.90
29577;DHT22;16509;53.862;10.672;2023-12-20T05:00:09;5.80;99.90
29577;DHT22;16509;53.862;10.672;2023-12-20T05:02:37;5.80;99.90
29577;DHT22;16509;53.862;10.672;2023-12-20T05:05:03;5.80;99.90
29577;DHT22;16509;53.862;10.672;2023-12-20T05:07:28;5.80;99.90
29577;DHT22;16509;53.862;10.672;2023-12-20T05:09:54;5.80;99.90
29577;DHT22;16509;53.862;10.672;2023-12-20T05:12:19;5.90;99.90
29577;DHT22;16509;53.862;10.672;2023-12-20T05:14:46;5.90;99.90
29577;DHT22;16509;53.862;10.672;2023-12-20T05:17:12;5.80;99.90
29577;DHT22;16509;53.862;10.672;2023-12-20T05:19:37;5.90;99.90
29577;DHT22;16509;53.862;10.672;2023-12-20T05:22:03;5.90;99.90
29577;DHT22;16509;53.862;10.672;2023-12-20T05:24:29;5.90;99.90
29577;DHT22;16509;53.862;10.672;2023-12-20T05:26:54;5.90;99.90
29577;DHT22;16509;53.862;10.672;2023-12-20T05:29:20;5.90;99.90
29577;DHT22;16509;53.862;10.672;2023-12-20T05:31:45;5.90;99.90
29577;DHT22;16509;53.862;10.672;2023-12-20T05:34:11;6.00;99.90
29577;DHT22;16509;53.862;10.672;2023-12-20T05:36:37;6.00;99.90
29577;DHT22;16509;53.862;10.672;2023-12-20T05:39:02;6.00;99.90
29577;DHT22;16509;53.862;10.672;2023-12-20T05:41:31;6.00;99.90
29577;DHT22;16509;53.862;10.672;2023-12-20T05:43:56;6.00;99.90
29577;DHT22;16509;53.862;10.672;2023-12-20T05:46:23;6.00;99.90
29577;DHT22;16509;53.862;10.672;2023-12-20T05:48:49;6.00;99.90
29577;DHT22;16509;53.862;10.672;2023-12-20T05:51:15;5.90;99.90
29577;DHT22;16509;53.862;10.672;2023-12-20T05:53:40;5.90;99.90
29577;DHT22;16509;53.862;10.672;2023-12-20T05:56:06;5.90;99.90
29577;DHT22;16509;53.862;10.672;2023-12-20T05:58:32;5.90;99.90
29577;DHT22;16509;53.862;10.672;2023-12-20T06:00:58;5.90;99.90
29577;DHT22;16509;53.862;10.672;2023-12-20T06:03:24;5.90;99.90
29577;DHT22;16509;53.862;10.672;2023-12-20T06:05:49;5.90;99.90
29577;DHT22;16509;53.862;10.672;2023-12-20T06:08:15;6.10;99.90
29577;DHT22;16509;53.862;10.672;2023-12-20T06:10:40;6.10;99.90
29577;DHT22;16509;53.862;10.672;2023-12-20T06:13:06;6.10;99.90
29577;DHT22;16509;53.862;10.672;2023-12-20T06:15:32;6.10;99.90
29577;DHT22;16509;53.862;10.672;2023-12-20T06:17:58;6.00;99.90
29577;DHT22;16509;53.862;10.672;2023-12-20T06:20:24;6.10;99.90
29577;DHT22;16509;53.862;10.672;2023-12-20T06:22:50;6.10;99.90
29577;DHT22;16509;53.862;10.672;2023-12-20T06:25:16;6.00;99.90
29577;DHT22;16509;53.862;10.672;2023-12-20T06:27:42;6.00;99.90
29577;DHT22;16509;53.862;10.672;2023-12-20T06:30:08;6.00;99.90
29577;DHT22;16509;53.862;10.672;2023-12-20T06:32:36;6.00;99.90
29577;DHT22;16509;53.862;10.672;2023-12-20T06:35:03;6.00;99.90
29577;DHT22;16509;53.862;10.672;2023-12-20T06:37:30;6.00;99.90
29577;DHT22;16509;53.862;10.672;2023-12-20T06:39:55;6.00;99.90
29577;DHT22;16509;53.862;10.672;2023-12-20T06:42:22;5.90;99.90
29577;DHT22;16509;53.862;10.672;2023-12-20T06:44:47;6.00;99.90
29577;DHT22;16509;53.862;10.672;2023-12-20T06:47:13;5.90;99.90
29577;DHT22;16509;53.862;10.672;2023-12-20T06:49:39;5.90;99.90
29577;DHT22;16509;53.862;10.672;2023-12-20T06:52:05;5.90;99.90
29577;DHT22;16509;53.862;10.672;2023-12-20T06:54:31;7.00;99.90
29577;DHT22;16509;53.862;10.672;2023-12-20T06:56:56;5.90;99.90
29577;DHT22;16509;53.862;10.672;2023-12-20T06:59:22;5.80;99.90
29577;DHT22;16509;53.862;10.672;2023-12-20T07:01:48;5.80;99.90
29577;DHT22;16509;53.862;10.672;2023-12-20T07:04:15;5.80;99.90
29577;DHT22;16509;53.862;10.672;2023-12-20T07:06:41;5.80;99.90
29577;DHT22;16509;53.862;10.672;2023-12-20T07:09:07;5.70;99.90
29577;DHT22;16509;53.862;10.672;2023-12-20T07:11:32;5.70;99.90
29577;DHT22;16509;53.862;10.672;2023-12-20T07:13:58;5.70;99.90
29577;DHT22;16509;53.862;10.672;2023-12-20T07:16:23;5.60;99.90
29577;DHT22;16509;53.862;10.672;2023-12-20T07:18:50;5.60;99.90
29577;DHT22;16509;53.862;10.672;2023-12-20T07:21:15;5.60;99.90
29577;DHT22;16509;53.862;10.672;2023-12-20T07:23:41;5.60;99.90
29577;DHT22;16509;53.862;10.672;2023-12-20T07:26:06;5.60;99.90
29577;DHT22;16509;53.862;10.672;2023-12-20T07:28:32;5.60;99.90
29577;DHT22;16509;53.862;10.672;2023-12-20T07:30:57;5.70;99.90
29577;DHT22;16509;53.862;10.672;2023-12-20T07:33:23;5.70;99.90
29577;DHT22;16509;53.862;10.672;2023-12-20T07:35:48;5.70;99.90
29577;DHT22;16509;53.862;10.672;2023-12-20T07:38:14;5.80;99.90
29577;DHT22;16509;53.862;10.672;2023-12-20T07:40:40;5.90;99.90
29577;DHT22;16509;53.862;10.672;2023-12-20T07:43:05;5.90;99.90
29577;DHT22;16509;53.862;10.672;2023-12-20T07:45:31;5.90;99.90
29577;DHT22;16509;53.862;10.672;2023-12-20T07:47:56;5.90;99.90
29577;DHT22;16509;53.862;10.672;2023-12-20T07:50:22;5.90;99.90
29577;DHT22;16509;53.862;10.672;2023-12-20T07:52:47;5.90;99.90
29577;DHT22;16509;53.862;10.672;2023-12-20T07:55:13;5.80;99.90
29577;DHT22;16509;53.862;10.672;2023-12-20T07:57:38;5.90;99.90
29577;DHT22;16509;53.862;10.672;2023-12-20T08:00:04;5.90;99.90
29577;DHT22;16509;53.862;10.672;2023-12-20T08:02:30;5.90;99.90
29577;DHT22;16509;53.862;10.672;2023-12-20T08:04:56;5.90;99.90
29577;DHT22;16509;53.862;10.672;2023-12-20T08:07:21;5.90;99.90
29577;DHT22;16509;53.862;10.672;2023-12-20T08:09:47;5.90;99.90
29577;DHT22;16509;53.862;10.672;2023-12-20T08:12:13;6.00;99.90
29577;DHT22;16509;53.862;10.672;2023-12-20T08:14:38;6.00;99.90
29577;DHT22;16509;53.862;10.672;2023-12-20T08:17:04;6.00;99.90
29577;DHT22;16509;53.862;10.672;2023-12-20T08:19:29;6.00;99.90
29577;DHT22;16509;53.862;10.672;2023-12-20T08:21:55;5.80;99.90
29577;DHT22;16509;53.862;10.672;2023-12-20T08:24:21;5.90;99.90
29577;DHT22;16509;53.862;10.672;2023-12-20T08:26:46;6.00;99.90
29577;DHT22;16509;53.862;10.672;2023-12-20T08:29:15;6.00;99.90
29577;DHT22;16509;53.862;10.672;2023-12-20T08:31:56;6.00;99.90
29577;DHT22;16509;53.862;10.672;2023-12-20T08:34:23;5.90;99.90
29577;DHT22;16509;53.862;10.672;2023-12-20T08:36:50;5.90;99.90
29577;DHT22;16509;53.862;10.672;2023-12-20T08:39:16;5.90;99.90
29577;DHT22;16509;53.862;10.672;2023-12-20T08:41:42;6.00;99.90
29577;DHT22;16509;53.862;10.672;2023-12-20T08:44:08;6.00;99.90
29577;DHT22;16509;53.862;10.672;2023-12-20T08:46:33;6.00;99.90
29577;DHT22;16509;53.862;10.672;2023-12-20T08:48:59;6.00;99.90
29577;DHT22;16509;53.862;10.672;2023-12-20T08:51:25;6.00;99.90
29577;DHT22;16509;53.862;10.672;2023-12-20T08:53:51;6.10;99.90
29577;DHT22;16509;53.862;10.672;2023-12-20T08:56:17;6.10;99.90
29577;DHT22;16509;53.862;10.672;2023-12-20T08:58:44;6.10;99.90
29577;DHT22;16509;53.862;10.672;2023-12-20T09:01:09;6.10;99.90
29577;DHT22;16509;53.862;10.672;2023-12-20T09:03:35;6.20;99.90
29577;DHT22;16509;53.862;10.672;2023-12-20T09:06:01;6.20;99.90
29577;DHT22;16509;53.862;10.672;2023-12-20T09:08:26;6.30;99.90
29577;DHT22;16509;53.862;10.672;2023-12-20T09:10:52;6.30;99.90
29577;DHT22;16509;53.862;10.672;2023-12-20T09:13:17;6.40;99.90
29577;DHT22;16509;53.862;10.672;2023-12-20T09:15:43;6.40;99.90
29577;DHT22;16509;53.862;10.672;2023-12-20T09:18:08;6.40;99.90
29577;DHT22;16509;53.862;10.672;2023-12-20T09:20:34;6.40;99.90
29577;DHT22;16509;53.862;10.672;2023-12-20T09:23:00;6.40;99.90
29577;DHT22;16509;53.862;10.672;2023-12-20T09:25:26;6.40;99.90
29577;DHT22;16509;53.862;10.672;2023-12-20T09:27:52;6.40;99.90
29577;DHT22;16509;53.862;10.672;2023-12-20T09:30:18;6.30;99.90
29577;DHT22;16509;53.862;10.672;2023-12-20T09:32:45;6.30;99.90
29577;DHT22;16509;53.862;10.672;2023-12-20T09:35:10;6.20;99.90
29577;DHT22;16509;53.862;10.672;2023-12-20T09:37:36;6.10;99.90
29577;DHT22;16509;53.862;10.672;2023-12-20T09:40:03;6.00;99.90
29577;DHT22;16509;53.862;10.672;2023-12-20T09:45:20;6.00;99.90
29577;DHT22;16509;53.862;10.672;2023-12-20T09:47:50;6.00;99.90
29577;DHT22;16509;53.862;10.672;2023-12-20T09:50:18;5.90;99.90
29577;DHT22;16509;53.862;10.672;2023-12-20T09:52:46;5.90;99.90
29577;DHT22;16509;53.862;10.672;2023-12-20T09:55:14;5.90;99.90
29577;DHT22;16509;53.862;10.672;2023-12-20T09:57:40;5.80;99.90
29577;DHT22;16509;53.862;10.672;2023-12-20T10:00:06;5.70;99.90
29577;DHT22;16509;53.862;10.672;2023-12-20T10:02:32;5.70;99.90
29577;DHT22;16509;53.862;10.672;2023-12-20T10:05:00;5.60;99.90
29577;DHT22;16509;53.862;10.672;2023-12-20T10:07:26;5.60;99.90
29577;DHT22;16509;53.862;10.672;2023-12-20T10:09:54;5.60;99.90
29577;DHT22;16509;53.862;10.672;2023-12-20T10:12:21;5.60;99.90
29577;DHT22;16509;53.862;10.672;2023-12-20T10:15:21;5.50;99.90
29577;DHT22;16509;53.862;10.672;2023-12-20T10:17:49;5.50;99.90
29577;DHT22;16509;53.862;10.672;2023-12-20T10:20:14;5.50;99.90
29577;DHT22;16509;53.862;10.672;2023-12-20T10:22:40;5.50;99.90
29577;DHT22;16509;53.862;10.672;2023-12-20T10:25:06;5.50;99.90
29577;DHT22;16509;53.862;10.672;2023-12-20T10:27:32;5.50;99.90
29577;DHT22;16509;53.862;10.672;2023-12-20T10:29:59;5.50;99.90
29577;DHT22;16509;53.862;10.672;2023-12-20T10:32:26;5.50;99.90
29577;DHT22;16509;53.862;10.672;2023-12-20T10:34:53;5.40;99.90
29577;DHT22;16509;53.862;10.672;2023-12-20T10:37:19;5.40;99.90
29577;DHT22;16509;53.862;10.672;2023-12-20T10:39:52;5.40;99.90
29577;DHT22;16509;53.862;10.672;2023-12-20T10:42:21;5.40;99.90
29577;DHT22;16509;53.862;10.672;2023-12-20T10:44:48;5.50;99.90
29577;DHT22;16509;53.862;10.672;2023-12-20T10:47:15;5.50;99.90
29577;DHT22;16509;53.862;10.672;2023-12-20T10:49:40;5.50;99.90
29577;DHT22;16509;53.862;10.672;2023-12-20T10:52:07;5.50;99.90
29577;DHT22;16509;53.862;10.672;2023-12-20T10:54:34;5.50;99.90
29577;DHT22;16509;53.862;10.672;2023-12-20T10:56:59;5.50;99.90
29577;DHT22;16509;53.862;10.672;2023-12-20T10:59:28;5.50;99.90
29577;DHT22;16509;53.862;10.672;2023-12-20T11:01:55;5.50;99.90
29577;DHT22;16509;53.862;10.672;2023-12-20T11:04:28;5.60;99.90
29577;DHT22;16509;53.862;10.672;2023-12-20T11:07:04;5.60;99.90
29577;DHT22;16509;53.862;10.672;2023-12-20T11:09:36;5.70;99.90
29577;DHT22;16509;53.862;10.672;2023-12-20T11:12:20;5.80;99.90
29577;DHT22;16509;53.862;10.672;2023-12-20T11:14:53;5.70;99.90
29577;DHT22;16509;53.862;10.672;2023-12-20T11:17:22;5.60;99.90
29577;DHT22;16509;53.862;10.672;2023-12-20T11:22:20;5.50;99.90
29577;DHT22;16509;53.862;10.672;2023-12-20T11:24:51;5.50;99.90
29577;DHT22;16509;53.862;10.672;2023-12-20T11:27:19;5.50;99.90
29577;DHT22;16509;53.862;10.672;2023-12-20T11:29:58;5.50;99.90
29577;DHT22;16509;53.862;10.672;2023-12-20T11:34:59;5.40;99.90
29577;DHT22;16509;53.862;10.672;2023-12-20T11:37:32;5.50;99.90
29577;DHT22;16509;53.862;10.672;2023-12-20T11:40:02;5.50;99.90
29577;DHT22;16509;53.862;10.672;2023-12-20T11:42:39;5.50;99.90
29577;DHT22;16509;53.862;10.672;2023-12-20T11:45:05;5.50;99.90
29577;DHT22;16509;53.862;10.672;2023-12-20T11:47:33;5.50;99.90
29577;DHT22;16509;53.862;10.672;2023-12-20T11:49:59;5.40;99.90
29577;DHT22;16509;53.862;10.672;2023-12-20T11:52:28;5.40;99.90
29577;DHT22;16509;53.862;10.672;2023-12-20T11:54:54;5.30;99.90
29577;DHT22;16509;53.862;10.672;2023-12-20T11:57:19;5.40;99.90
29577;DHT22;16509;53.862;10.672;2023-12-20T11:59:45;5.40;99.90
29577;DHT22;16509;53.862;10.672;2023-12-20T12:02:12;5.40;99.90
29577;DHT22;16509;53.862;10.672;2023-12-20T12:04:37;5.40;99.90
29577;DHT22;16509;53.862;10.672;2023-12-20T12:07:03;5.40;99.90
29577;DHT22;16509;53.862;10.672;2023-12-20T12:09:29;5.40;99.90
29577;DHT22;16509;53.862;10.672;2023-12-20T12:11:54;5.50;99.90
29577;DHT22;16509;53.862;10.672;2023-12-20T12:14:20;5.50;99.90
29577;DHT22;16509;53.862;10.672;2023-12-20T12:20:08;5.60;99.90
29577;DHT22;16509;53.862;10.672;2023-12-20T12:22:35;5.70;99.90
29577;DHT22;16509;53.862;10.672;2023-12-20T12:25:12;5.70;99.90
29577;DHT22;16509;53.862;10.672;2023-12-20T12:28:08;5.70;99.90
29577;DHT22;16509;53.862;10.672;2023-12-20T12:30:34;5.70;99.90
29577;DHT22;16509;53.862;10.672;2023-12-20T12:33:00;5.70;99.90
29577;DHT22;16509;53.862;10.672;2023-12-20T12:35:25;5.90;99.90
29577;DHT22;16509;53.862;10.672;2023-12-20T12:37:51;6.00;99.90
29577;DHT22;16509;53.862;10.672;2023-12-20T12:40:17;6.20;99.90
29577;DHT22;16509;53.862;10.672;2023-12-20T12:42:44;6.20;99.90
29577;DHT22;16509;53.862;10.672;2023-12-20T12:45:11;6.30;99.90
29577;DHT22;16509;53.862;10.672;2023-12-20T12:47:37;6.30;99.90
29577;DHT22;16509;53.862;10.672;2023-12-20T12:50:03;6.20;99.90
29577;DHT22;16509;53.862;10.672;2023-12-20T12:52:30;6.20;99.90
29577;DHT22;16509;53.862;10.672;2023-12-20T12:54:56;6.20;99.90
29577;DHT22;16509;53.862;10.672;2023-12-20T12:57:21;6.20;99.90
29577;DHT22;16509;53.862;10.672;2023-12-20T12:59:47;6.30;99.90
29577;DHT22;16509;53.862;10.672;2023-12-20T13:02:13;6.30;99.90
29577;DHT22;16509;53.862;10.672;2023-12-20T13:04:39;6.20;99.90
29577;DHT22;16509;53.862;10.672;2023-12-20T13:07:05;6.10;99.90
29577;DHT22;16509;53.862;10.672;2023-12-20T13:09:31;5.90;99.90
29577;DHT22;16509;53.862;10.672;2023-12-20T13:11:57;5.90;99.90
29577;DHT22;16509;53.862;10.672;2023-12-20T13:17:29;5.80;99.90
29577;DHT22;16509;53.862;10.672;2023-12-20T13:19:54;5.70;99.90
29577;DHT22;16509;53.862;10.672;2023-12-20T13:22:20;5.70;99.90
29577;DHT22;16509;53.862;10.672;2023-12-20T13:24:46;5.70;99.90
29577;DHT22;16509;53.862;10.672;2023-12-20T13:27:11;5.80;99.90
29577;DHT22;16509;53.862;10.672;2023-12-20T13:29:37;5.80;99.90
29577;DHT22;16509;53.862;10.672;2023-12-20T13:32:02;5.70;99.90
29577;DHT22;16509;53.862;10.672;2023-12-20T13:34:29;5.80;99.90
29577;DHT22;16509;53.862;10.672;2023-12-20T13:36:54;5.80;99.90
29577;DHT22;16509;53.862;10.672;2023-12-20T13:39:20;5.70;99.90
29577;DHT22;16509;53.862;10.672;2023-12-20T13:41:46;5.80;99.90
29577;DHT22;16509;53.862;10.672;2023-12-20T13:44:12;5.80;99.90
29577;DHT22;16509;53.862;10.672;2023-12-20T13:46:38;5.80;99.90
29577;DHT22;16509;53.862;10.672;2023-12-20T13:49:04;5.80;99.90
29577;DHT22;16509;53.862;10.672;2023-12-20T13:51:30;5.80;99.90
29577;DHT22;16509;53.862;10.672;2023-12-20T13:53:56;5.90;99.90
29577;DHT22;16509;53.862;10.672;2023-12-20T13:56:21;5.90;99.90
29577;DHT22;16509;53.862;10.672;2023-12-20T13:58:48;6.00;99.90
29577;DHT22;16509;53.862;10.672;2023-12-20T14:01:14;6.10;99.90
29577;DHT22;16509;53.862;10.672;2023-12-20T14:03:40;6.10;99.90
29577;DHT22;16509;53.862;10.672;2023-12-20T14:06:06;6.10;99.90
29577;DHT22;16509;53.862;10.672;2023-12-20T14:08:32;6.10;99.90
29577;DHT22;16509;53.862;10.672;2023-12-20T14:10:57;6.10;99.90
29577;DHT22;16509;53.862;10.672;2023-12-20T14:13:23;6.10;99.90
29577;DHT22;16509;53.862;10.672;2023-12-20T14:15:48;6.10;99.90
29577;DHT22;16509;53.862;10.672;2023-12-20T14:18:14;6.00;99.90
29577;DHT22;16509;53.862;10.672;2023-12-20T14:20:40;6.10;99.90
29577;DHT22;16509;53.862;10.672;2023-12-20T14:23:08;6.00;99.90
29577;DHT22;16509;53.862;10.672;2023-12-20T14:25:35;6.10;99.90
29577;DHT22;16509;53.862;10.672;2023-12-20T14:28:05;6.10;99.90
29577;DHT22;16509;53.862;10.672;2023-12-20T14:30:31;6.10;99.90
29577;DHT22;16509;53.862;10.672;2023-12-20T14:32:57;6.10;99.90
29577;DHT22;16509;53.862;10.672;2023-12-20T14:35:23;6.10;99.90
29577;DHT22;16509;53.862;10.672;2023-12-20T14:37:49;6.00;99.90
29577;DHT22;16509;53.862;10.672;2023-12-20T14:43:37;6.00;99.90
29577;DHT22;16509;53.862;10.672;2023-12-20T14:46:03;6.00;99.90
29577;DHT22;16509;53.862;10.672;2023-12-20T14:48:28;5.90;99.90
29577;DHT22;16509;53.862;10.672;2023-12-20T14:51:19;5.90;99.90
29577;DHT22;16509;53.862;10.672;2023-12-20T14:53:44;5.90;99.90
29577;DHT22;16509;53.862;10.672;2023-12-20T14:56:10;5.90;99.90
29577;DHT22;16509;53.862;10.672;2023-12-20T14:59:13;5.90;99.90
29577;DHT22;16509;53.862;10.672;2023-12-20T15:01:38;5.90;99.90
29577;DHT22;16509;53.862;10.672;2023-12-20T15:04:06;5.90;99.90
29577;DHT22;16509;53.862;10.672;2023-12-20T15:06:32;5.90;99.90
29577;DHT22;16509;53.862;10.672;2023-12-20T15:08:58;5.80;99.90
29577;DHT22;16509;53.862;10.672;2023-12-20T15:11:24;5.70;99.90
29577;DHT22;16509;53.862;10.672;2023-12-20T15:13:49;5.70;99.90
29577;DHT22;16509;53.862;10.672;2023-12-20T15:16:22;5.70;99.90
29577;DHT22;16509;53.862;10.672;2023-12-20T15:18:48;5.60;99.90
29577;DHT22;16509;53.862;10.672;2023-12-20T15:21:14;5.60;99.90
29577;DHT22;16509;53.862;10.672;2023-12-20T15:23:40;5.60;99.90
29577;DHT22;16509;53.862;10.672;2023-12-20T15:26:09;5.50;99.90
29577;DHT22;16509;53.862;10.672;2023-12-20T15:28:34;5.50;99.90
29577;DHT22;16509;53.862;10.672;2023-12-20T15:31:00;5.50;99.90
29577;DHT22;16509;53.862;10.672;2023-12-20T15:33:25;5.50;99.90
29577;DHT22;16509;53.862;10.672;2023-12-20T15:35:51;5.40;99.90
29577;DHT22;16509;53.862;10.672;2023-12-20T15:38:16;5.40;99.90
29577;DHT22;16509;53.862;10.672;2023-12-20T15:40:42;5.40;99.90
29577;DHT22;16509;53.862;10.672;2023-12-20T15:43:08;5.50;99.90